Weather observations for the past three days for
Cushing, Cushing Municipal Airport
Metric (Imperial)
Date Time (cdt) Wind (kph) Vis. (km) Weather Sky Cond. Temperature (ºC) Relative Humidity Wind Chill (°C) Heat Index (°C) Pressure Precipitation (cm)
Air Dwpt 6 hour altimeter (cm) sea level (mb) 1 hr 3 hr 6 hr
Max. Min.
06 04:15 N 13 G 28 16.09 Overcast SCT031 OVC048 9 3.6 69% 7 76.15 0.0
06 03:55 N 11 16.09 Overcast OVC046 9.1 3.9 70% 8 76.07 0.0
06 03:35 N 13 16.09 Overcast OVC046 9.1 3.5 68% 7 76.07 0.0
06 03:15 NE 17 16.09 Overcast OVC044 9.1 3.2 67% 7 76.02 0.0
06 02:55 NE 11 16.09 Overcast OVC044 9.2 3.2 66% 8 76.02 0.0
06 02:35 NE 11 G 26 16.09 Overcast OVC044 9.2 3.3 67% 8 76.02 0.0
06 02:15 NE 13 16.09 Overcast OVC044 9.2 3.5 68% 7 76 0.0
06 01:55 NE 15 16.09 Overcast OVC042 9.2 3.6 68% 7 76 0.0
06 01:35 NE 13 16.09 Overcast OVC042 9.3 3.6 68% 8 76 0.0
06 01:15 NE 15 16.09 Overcast OVC040 9.3 3.3 66% 7 76.02 0.0
06 00:55 NE 9 16.09 Overcast OVC038 9.5 3 10.5 9.5 64% 8 76.02 0.0
06 00:35 NE 17 G 28 16.09 Overcast OVC038 9.5 2.5 62% 7 76.02 0.0
06 00:15 NE 17 16.09 Overcast OVC036 9.6 2.6 62% 7 76 0.0
05 23:55 NE 15 G 28 16.09 Overcast OVC036 9.6 2.3 61% 8 76 0.0
05 23:35 NE 13 16.09 Overcast OVC034 9.6 2.3 61% 8 76 0.0
05 23:15 NE 19 G 31 16.09 Overcast OVC034 9.6 2.5 62% 7 75.97 0.0
05 22:55 NE 20 G 31 16.09 Overcast OVC034 9.7 4.3 69% 7 75.97 0.0
05 22:35 N 19 G 28 16.09 Overcast OVC032 10 3.1 63% 8 76 0.0
05 22:15 NE 22 G 31 16.09 Overcast OVC032 9.9 3.7 66% 7 75.97 0.0
05 21:55 NE 15 16.09 Overcast BKN027 OVC035 9.8 4.2 68% 8 75.97 0.0
05 21:35 N 20 G 28 16.09 Overcast OVC025 9.7 4.2 69% 7 75.95 0.0
05 21:15 NE 19 G 30 16.09 Overcast OVC023 9.7 4.6 71% 7 75.95 0.0
05 20:55 NE 17 16.09 Overcast OVC019 9.7 5 73% 8 75.9 0.0
05 20:35 NE 17 G 28 16.09 Overcast OVC021 9.6 5.1 74% 7 75.87 0.0
05 20:15 NE 20 G 35 16.09 Overcast OVC021 9.7 5 73% 7 75.82 0.0
05 19:55 NE 24 G 31 16.09 Overcast OVC021 9.9 4.9 71% 7 75.79 0.0
05 19:35 N 20 G 31 16.09 Overcast OVC023 10 4.7 70% 8 75.77 0.0
05 19:15 NE 22 G 28 16.09 Overcast OVC023 10.3 4.6 68% 75.79 0.0
05 18:55 NE 20 G 33 16.09 Overcast OVC023 10.5 4.8 13 10.5 68% 75.77 0.0
05 18:35 NE 17 G 30 16.09 Overcast OVC025 10.8 4.9 67% 75.77 0.0
05 18:15 NE 20 G 31 16.09 Overcast OVC025 11 4.8 66% 75.74 0.0
05 17:55 NE 26 G 39 16.09 Overcast OVC025 11.1 4.4 64% 75.74 0.0
05 17:35 NE 22 G 35 16.09 Overcast OVC025 11.3 4.8 65% 75.72 0.0
05 17:15 NE 24 G 33 16.09 Overcast OVC023 11.5 5.1 65% 75.69 0.0
05 16:55 NE 22 G 37 16.09 Overcast OVC023 11.8 5.4 65% 75.67 0.0
05 16:35 NE 24 G 35 16.09 Overcast OVC023 11.5 5.3 66% 75.62 0.0
05 16:15 NE 19 G 35 16.09 Overcast OVC023 11.9 5.3 64% 75.67 0.0
05 15:55 NE 20 G 41 16.09 Overcast OVC023 12.3 5.5 63% 75.67 0.0
05 15:35 NE 30 G 39 16.09 Overcast OVC023 11.8 5.6 66% 75.64 0.0
05 15:15 NE 22 G 39 16.09 Overcast OVC023 12 6.1 67% 75.64 0.0
05 14:55 N 30 G 43 16.09 Overcast OVC021 12.5 6.1 65% 75.62 0.0
05 14:35 NE 24 G 41 16.09 Overcast OVC019 12.6 6.7 68% 75.62 0.0
05 14:15 NE 24 G 33 16.09 Overcast OVC015 12.5 7.7 73% 75.59 0.0
05 13:55 NE 19 G 30 16.09 Overcast OVC015 12.6 8.3 75% 75.59 0.0
05 13:35 NE 30 G 35 16.09 Overcast OVC015 12.8 8.3 74% 75.57 0.0
05 13:15 NE 26 G 39 16.09 Overcast OVC015 12.9 8.5 75% 75.54 0.0
05 12:55 NE 24 G 35 16.09 Overcast OVC015 12.7 8.6 20 12.7 76% 75.57 0.0
05 12:35 NE 26 G 35 16.09 Overcast OVC013 12.9 8.9 77% 75.54 0.0
05 12:15 NE 20 G 35 16.09 Overcast OVC013 12.8 9 78% 75.51 0.0
05 11:55 NE 24 G 43 16.09 Overcast OVC013 12.9 9.4 79% 75.46 0.0
05 11:35 NE 28 G 44 16.09 Overcast OVC013 13.1 9.9 81% 75.44 0.0
05 11:15 NE 30 G 41 16.09 Overcast OVC013 13.6 10.2 80% 75.39 0.0
05 10:55 NE 28 G 39 16.09 Overcast OVC013 15.1 11.4 79% 75.34 0.0
05 10:35 NE 30 G 39 16.09 Overcast OVC013 16 12.4 79% 75.34 0.0
05 10:15 NE 19 G 33 16.09 Overcast OVC015 17.8 14.6 82% 75.31 0.0
05 09:55 NE 22 G 30 16.09 Overcast OVC017 19.2 15.5 79% 75.23 0.0
05 09:35 NE 15 16.09 Overcast BKN017 OVC024 19.5 15.9 80% 75.23 0.0
05 09:15 NE 7 16.09 Overcast SCT017 BKN025 OVC033 20 15.9 77% 75.21 0.0
05 08:55 SE 7 16.09 Partly Cloudy SCT028 SCT036 19.8 15.5 76% 75.18 0.0
05 08:35 E 7 16.09 Fair CLR 19.5 15.4 77% 75.18 0.0
05 08:15 E 7 16.09 Partly Cloudy SCT036 19 15.2 79% 75.16 0.0
05 07:55 E 9 16.09 Overcast OVC036 18.8 15.1 79% 75.18 0.0
05 07:35 E 17 G 28 16.09 Overcast SCT024 OVC034 18.6 15 80% 75.16 0.0
05 07:15 NE 9 16.09 Overcast SCT024 OVC034 18.5 15.5 83% 75.16 0.0
05 06:55 NE 11 16.09 Mostly Cloudy SCT026 BKN034 18.5 16 21.5 17.8 85% 75.13 0.0
05 06:35 E 13 16.09 Mostly Cloudy BKN034 18.3 16.2 88% 75.11 0.0
05 06:15 E 11 16.09 Fair CLR 18.3 16.3 88% 75.11 0.0
05 05:55 NE 11 16.09 Fair CLR 18.1 16.5 90% 75.08 0.0
05 05:35 NE 11 16.09 Fair CLR 18.1 16.2 89% 75.06 0.0
05 05:15 NE 6 16.09 Fair CLR 18.6 15.5 82% 75.03 0.0
05 04:55 E 6 16.09 Fair CLR 18.5 15.5 83% 75.01 0.0
05 04:35 E 6 16.09 Fair CLR 18.8 15.5 81% 75.01 0.0
05 04:15 E 9 16.09 Fair CLR 19.3 15.5 79% 75.01 0.0
05 03:55 E 13 16.09 Fair CLR 19.4 15.5 78% 75.03 0.0
05 03:35 E 7 16.09 Fair CLR 19.6 15.5 77% 75.03 0.0
05 03:15 E 11 16.09 Fair CLR 20.2 15.5 75% 75.06 0.0
05 02:55 SE 7 16.09 Fair CLR 20 15.5 75% 75.06 0.0
05 02:35 E 9 16.09 Fair CLR 20.9 15.5 71% 75.08 0.0
05 02:15 NE 6 16.09 Fair CLR 20.4 15.5 74% 75.08 0.0
05 01:55 E 7 16.09 Fair CLR 21.2 15.5 70% 75.08 0.0
05 01:35 S 13 G 26 16.09 Fair CLR 21.1 15.5 71% 75.06 0.0
05 01:15 S 20 G 33 16.09 Fair CLR 21.5 15.5 69% 75.06 0.0
05 00:55 S 24 G 35 16.09 Fair CLR 21.5 15.3 25 21.5 68% 75.06 0.0
05 00:35 S 20 G 33 16.09 Fair CLR 21.6 15.3 68% 75.06 0.0
05 00:15 S 24 G 33 16.09 Fair CLR 21.8 15.2 66% 75.08 0.0
04 23:55 S 24 G 35 16.09 Fair CLR 22 15.2 65% 75.08 0.0
04 23:35 S 28 G 37 16.09 Fair CLR 22.1 15.1 65% 75.11 0.0
04 23:15 S 22 G 37 16.09 Fair CLR 22.5 15.1 63% 75.08 0.0
04 22:55 S 19 G 35 16.09 Fair CLR 22.8 15 62% 75.13 0.0
04 22:35 S 22 G 33 16.09 Fair CLR 23 15 61% 75.13 0.0
04 22:15 S 17 G 31 16.09 Fair CLR 23.1 14.8 60% 75.16 0.0
04 21:55 S 17 G 28 16.09 Fair CLR 23.1 14.7 59% 75.16 0.0
04 21:35 S 17 16.09 Fair CLR 23.2 14.7 59% 75.16 0.0
04 21:15 SE 13 16.09 Fair CLR 23.2 14.7 59% 75.13 0.0
04 20:55 S 15 16.09 Fair CLR 23.5 14.7 58% 75.16 0.0
04 20:35 S 13 16.09 Fair CLR 23.5 14.7 58% 75.16 0.0
04 20:15 S 13 16.09 Fair CLR 23.8 14.6 56% 75.16 0.0
04 19:55 S 11 16.09 Fair CLR 24 14.6 56% 25 75.16 0.0
04 19:35 S 17 16.09 Fair CLR 24.3 14.5 54% 26 75.13 0.0
04 19:15 S 15 16.09 Fair CLR 24.7 14.5 53% 26 75.16 0.0
04 18:55 S 22 G 30 16.09 Fair CLR 25 14.5 27.2 25 52% 26 75.18 0.0
04 18:35 S 19 G 31 16.09 Fair CLR 25.1 14.5 52% 26 75.18 0.0
04 18:15 S 28 G 41 16.09 Fair CLR 25.3 14.5 51% 26 75.23 0.0
04 17:55 S 31 G 44 16.09 Partly Cloudy SCT048 25.7 14.4 50% 26 75.23 0.0
04 17:35 S 26 G 33 16.09 Partly Cloudy SCT048 26 14.2 48% 26 75.23 0.0
04 17:15 S 31 G 41 16.09 Partly Cloudy SCT048 25.9 14 48% 26 75.21 0.0
04 16:55 S 22 G 39 16.09 Partly Cloudy SCT048 26.2 14 47% 27 75.23 0.0
04 16:35 S 22 G 44 16.09 Partly Cloudy SCT048 26.4 14.3 47% 27 75.23 0.0
04 16:15 S 30 G 44 16.09 Fair CLR 26.6 13.7 45% 27 75.26 0.0
04 15:55 S 30 G 43 16.09 Fair CLR 27.2 13.5 43% 27 75.29 0.0
04 15:35 S 31 G 43 16.09 Partly Cloudy SCT048 27 13.9 45% 27 75.31 0.0
04 15:15 S 30 G 46 16.09 Fair CLR 26.9 13.4 43% 27 75.34 0.0
04 14:35 S 33 G 43 16.09 Fair and Breezy CLR 26.9 13.4 43% 27 75.36 0.0
04 14:15 S 35 16.09 Fair and Breezy CLR 26.3 13.2 44% 27 75.39 0.0
04 13:55 S 28 G 41 16.09 Fair CLR 26.2 12.9 44% 26 75.41 0.0
04 13:35 S 31 G 39 16.09 Fair CLR 26 12.5 43% 26 75.44 0.0
04 13:15 S 33 G 41 16.09 Fair and Breezy CLR 26.1 12.9 44% 26 75.44 0.0
04 12:55 S 31 G 43 16.09 Fair CLR 25.3 11.8 25.5 15.1 43% 26 75.46 0.0
04 12:35 S 35 G 46 16.09 Fair and Breezy CLR 25.1 11.5 43% 26 75.49 0.0
04 12:15 S 26 G 37 16.09 Fair CLR 25 11.6 43% 26 75.49 0.0
04 11:55 S 30 G 41 16.09 Fair CLR 25 11.3 42% 26 75.51 0.0
04 11:35 SW 22 G 41 16.09 Fair CLR 24.2 11 44% 25 75.51 0.0
04 11:15 S 31 G 39 16.09 Fair CLR 23.6 10.6 44% 75.51 0.0
04 10:55 SW 28 G 37 16.09 Fair CLR 23.1 10 44% 75.51 0.0
04 10:35 S 28 G 41 16.09 Fair CLR 22.8 9.7 43% 75.54 0.0
04 10:15 S 24 G 39 16.09 Fair CLR 22.2 9.4 44% 75.57 0.0
04 09:55 SW 26 G 41 16.09 Fair CLR 21.9 9.3 45% 75.57 0.0
04 09:35 SW 28 G 41 16.09 Fair CLR 20.9 8.7 46% 75.59 0.0
04 09:15 S 31 G 44 16.09 Fair CLR 20.5 8.7 47% 75.59 0.0
04 08:55 S 30 G 43 16.09 Fair CLR 19.7 8.4 48% 75.59 0.0
04 08:35 S 20 G 35 16.09 Fair CLR 19.1 8.3 50% 75.59 0.0
04 08:15 S 24 G 31 16.09 Fair CLR 18.6 8.4 52% 75.62 0.0
04 07:55 S 17 16.09 Fair CLR 17.9 8.3 54% 75.59 0.0
04 07:35 S 17 16.09 Fair CLR 16.5 8 57% 75.62 0.0
04 07:15 S 11 16.09 Fair CLR 15.4 7.7 60% 75.62 0.0
04 06:55 S 11 16.09 Fair CLR 15 7.4 19.3 14.6 61% 75.62 0.0
04 06:35 S 9 16.09 Fair CLR 14.9 7.2 60% 75.64 0.0
04 06:15 S 13 16.09 Fair CLR 15.6 7.1 57% 75.64 0.0
04 05:55 S 15 16.09 Fair CLR 15.5 7 57% 75.64 0.0
04 05:35 S 13 16.09 Fair CLR 15.3 7 58% 75.64 0.0
04 05:15 S 9 16.09 Fair CLR 15.7 7 56% 75.67 0.0
04 04:55 S 9 16.09 Fair CLR 16.1 6.9 55% 75.67 0.0
04 04:35 S 17 16.09 Fair CLR 16.7 6.6 52% 75.67 0.0
04 04:15 S 20 16.09 Fair CLR 16.7 6.5 51% 75.67 0.0
04 03:55 S 17 16.09 Fair CLR 16.8 6.5 51% 75.69 0.0
04 03:35 S 22 16.09 Fair CLR 17 6.2 49% 75.69 0.0
04 03:15 S 24 G 30 16.09 Fair CLR 17.3 6.1 48% 75.69 0.0
04 02:55 S 22 16.09 Fair CLR 17.3 6 48% 75.72 0.0
04 02:35 S 22 G 31 16.09 Fair CLR 17.6 5.7 46% 75.74 0.0
04 02:15 S 22 G 33 16.09 Fair CLR 18 5.6 44% 75.74 0.0
04 01:55 S 20 G 30 16.09 Fair CLR 17.9 5.6 45% 75.77 0.0
04 01:35 S 19 G 28 16.09 Fair CLR 18.4 5.5 43% 75.79 0.0
04 01:15 S 20 G 28 16.09 Fair CLR 18.5 5.5 43% 75.79 0.0
04 00:55 S 24 G 33 16.09 Fair CLR 19.3 5.2 26.7 19.2 40% 75.79 0.0
04 00:35 S 24 16.09 Fair CLR 19.3 5.2 40% 75.82 0.0
03 23:55 S 20 G 30 16.09 Fair CLR 19.3 5.6 41% 75.84 0.0
03 23:35 S 19 16.09 Fair CLR 19.5 5.6 40% 75.87 0.0
03 23:15 S 15 G 28 16.09 Fair CLR 19.5 5.7 41% 75.87 0.0
03 22:55 S 15 16.09 Fair CLR 19.4 5.6 41% 75.87 0.0
03 22:35 S 15 G 26 16.09 Fair CLR 19.5 5.5 40% 75.87 0.0
03 22:15 S 13 16.09 Fair CLR 19.6 5.4 40% 75.87 0.0
03 21:55 S 13 16.09 Fair CLR 19.6 5.5 40% 75.87 0.0
03 21:35 S 15 16.09 Fair CLR 20.4 5.3 37% 75.87 0.0
03 21:15 S 15 16.09 Fair CLR 21 5.6 37% 75.87 0.0
03 20:55 S 15 16.09 Fair CLR 21 5.8 37% 75.84 0.0
03 20:35 S 13 16.09 Fair CLR 22.2 5.5 34% 75.82 0.0
03 20:15 S 15 16.09 Fair CLR 23 5.2 32% 75.82 0.0
03 19:55 S 17 16.09 Fair CLR 24.1 4.8 29% 25 75.82 0.0
03 19:35 SW 22 G 35 16.09 Fair CLR 25.7 3.1 23% 25 75.84 0.0
03 19:15 SW 26 G 33 16.09 Fair CLR 26 3.2 23% 26 75.84 0.0
03 18:55 SW 26 16.09 Fair CLR 26.7 4.6 28.9 26.4 24% 26 75.87 0.0
03 18:35 SW 20 G 37 16.09 Fair CLR 26.4 4.3 24% 26 75.87 0.0
03 18:15 SW 20 G 35 16.09 Fair CLR 26.9 2.8 21% 26 75.87 0.0
03 17:55 SW 20 G 39 16.09 Fair CLR 27.8 3.3 21% 27 75.87 0.0
03 17:35 SW 26 G 46 16.09 Fair CLR 28 3.8 21% 27 75.87 0.0
03 17:15 SW 22 G 39 16.09 Fair CLR 28.4 4.7 22% 27 75.9 0.0
03 16:55 SW 20 G 33 16.09 Fair CLR 28.5 3.2 20% 27 75.9 0.0
03 16:35 SW 30 G 43 16.09 Fair CLR 28.5 1.8 18% 27 75.92 0.0
03 16:15 SW 26 G 43 16.09 Fair CLR 28.6 2.2 18% 27 75.95 0.0
03 15:55 SW 24 G 35 16.09 Fair CLR 28.6 1.3 17% 27 75.95 0.0
03 15:35 SW 26 G 37 16.09 Fair CLR 28.9 2.3 18% 27 75.97 0.0
03 15:15 SW 20 G 35 16.09 Fair CLR 28.8 2.7 19% 27 76.02 0.0
03 14:55 SW 22 G 31 16.09 Fair CLR 28.8 3.1 19% 27 76.05 0.0
03 14:35 SW 24 G 30 16.09 Fair CLR 28.6 1.3 17% 27 76.07 0.0
03 14:15 W 24 G 35 16.09 Fair CLR 28.3 1 17% 27 76.07 0.0
03 13:55 SW 19 G 33 16.09 Fair CLR 27.8 2.3 19% 27 76.1 0.0
03 13:35 SW 13 16.09 Fair CLR 27.7 5.9 25% 27 76.12 0.0
03 13:15 S 20 16.09 Fair CLR 27.2 7.9 30% 27 76.15 0.0
03 12:35 SW 17 16.09 Fair CLR 25.6 8.8 35% 26 76.2 0.0
03 12:15 SW 15 16.09 Fair CLR 24.6 9 37% 25 76.23 0.0
03 11:55 S 15 16.09 Fair CLR 23.8 9.4 40% 76.25 0.0
03 11:35 SW 11 16.09 Fair CLR 23 9.2 42% 76.25 0.0
03 11:15 SW 19 16.09 Fair CLR 22 8.8 43% 76.28 0.0
03 10:55 SW 17 16.09 Fair CLR 21.2 8.4 44% 76.28 0.0
03 10:35 S 17 16.09 Fair CLR 20.7 8.9 47% 76.28 0.0
03 10:15 SW 15 16.09 Fair CLR 19.3 8.4 49% 76.28 0.0
03 09:55 S 15 16.09 Fair CLR 18.5 8.5 52% 76.3 0.0
03 09:35 S 13 16.09 Fair CLR 17 8.5 58% 76.3 0.0
03 09:15 S 13 16.09 Fair CLR 15.7 7.9 60% 76.33 0.0
03 08:55 S 17 16.09 Fair CLR 15.3 8.1 62% 76.33 0.0
03 08:35 S 19 16.09 Fair CLR 14.2 7.4 64% 76.3 0.0
03 08:15 S 17 16.09 Fair CLR 13.2 7 66% 76.33 0.0
03 07:55 S 11 16.09 Fair CLR 12.1 6.4 68% 76.33 0.0
03 07:35 S 9 16.09 Fair CLR 10.8 5.4 70% 76.33 0.0
03 07:15 S 7 16.09 Fair CLR 9.3 4.4 72% 9 76.3 0.0
03 06:55 SW 6 16.09 Fair CLR 9.5 4 10.3 8.5 69% 76.3 0.0
03 06:35 Calm 16.09 Fair CLR 8.7 4.2 74% 76.3 0.0
03 06:15 Calm 16.09 Fair CLR 8.6 4.1 74% 76.3 0.0
03 05:55 Calm 16.09 Fair CLR 9.4 4 69% 76.3 0.0
03 05:35 Calm 16.09 Fair CLR 9.5 4 69% 76.33 0.0
03 05:15 Calm 16.09 Fair CLR 9.5 4.3 70% 76.33 0.0
03 04:55 Calm 16.09 Fair CLR 9.5 4.4 71% 76.35 0.0
03 04:35 SW 6 16.09 Fair CLR 9.5 4.2 70% 76.38 0.0
Date Time (cdt) Wind (kph) Vis. (km) Weather Sky Cond. Air Dwpt Max. Min. Relative Humidity Wind Chill (°C) Heat Index (°C) altimeter (cm) sea level (mb) 1 hr 3 hr 6 hr
6 hour
Temperature (ºC) Pressure Precipitation (cm)